sensor_id;sensor_type;location;lat;lon;timestamp;pressure;altitude;pressure_sealevel;temperature;humidity
22753;BME280;11543;43.144;24.684;2023-04-26T00:01:34;97840.97;;;13.02;81.05
22753;BME280;11543;43.144;24.684;2023-04-26T00:03:59;97848.91;;;13.10;81.00
22753;BME280;11543;43.144;24.684;2023-04-26T00:06:25;97855.91;;;13.04;81.17
22753;BME280;11543;43.144;24.684;2023-04-26T00:08:51;97873.78;;;13.12;81.10
22753;BME280;11543;43.144;24.684;2023-04-26T00:11:16;97853.47;;;13.10;81.22
22753;BME280;11543;43.144;24.684;2023-04-26T00:13:42;97859.44;;;13.26;80.86
22753;BME280;11543;43.144;24.684;2023-04-26T00:16:08;97861.88;;;13.21;80.64
22753;BME280;11543;43.144;24.684;2023-04-26T00:18:33;97849.81;;;13.17;80.64
22753;BME280;11543;43.144;24.684;2023-04-26T00:20:59;97856.47;;;13.21;80.49
22753;BME280;11543;43.144;24.684;2023-04-26T00:23:24;97844.31;;;13.04;80.44
22753;BME280;11543;43.144;24.684;2023-04-26T00:25:50;97842.16;;;12.99;80.26
22753;BME280;11543;43.144;24.684;2023-04-26T00:28:16;97828.16;;;13.04;80.26
22753;BME280;11543;43.144;24.684;2023-04-26T00:30:41;97827.38;;;13.10;80.12
22753;BME280;11543;43.144;24.684;2023-04-26T00:33:12;97835.34;;;13.18;80.00
22753;BME280;11543;43.144;24.684;2023-04-26T00:35:37;97833.16;;;13.07;79.82
22753;BME280;11543;43.144;24.684;2023-04-26T00:38:03;97838.53;;;13.07;79.89
22753;BME280;11543;43.144;24.684;2023-04-26T00:40:29;97831.97;;;12.95;79.94
22753;BME280;11543;43.144;24.684;2023-04-26T00:42:59;97820.47;;;12.80;80.01
22753;BME280;11543;43.144;24.684;2023-04-26T00:45:25;97830.47;;;12.86;80.10
22753;BME280;11543;43.144;24.684;2023-04-26T00:47:51;97834.97;;;12.79;80.16
22753;BME280;11543;43.144;24.684;2023-04-26T00:50:17;97830.22;;;12.81;80.02
22753;BME280;11543;43.144;24.684;2023-04-26T00:52:47;97822.78;;;12.83;80.08
22753;BME280;11543;43.144;24.684;2023-04-26T00:55:30;97811.38;;;12.81;80.07
22753;BME280;11543;43.144;24.684;2023-04-26T00:58:21;97801.38;;;12.74;79.89
22753;BME280;11543;43.144;24.684;2023-04-26T01:00:56;97808.03;;;12.79;80.10
22753;BME280;11543;43.144;24.684;2023-04-26T01:03:22;97827.25;;;12.97;79.88
22753;BME280;11543;43.144;24.684;2023-04-26T01:05:48;97812.00;;;12.83;79.50
22753;BME280;11543;43.144;24.684;2023-04-26T01:08:14;97800.59;;;12.81;79.64
22753;BME280;11543;43.144;24.684;2023-04-26T01:10:41;97823.41;;;12.85;79.38
22753;BME280;11543;43.144;24.684;2023-04-26T01:13:07;97822.66;;;12.69;79.42
22753;BME280;11543;43.144;24.684;2023-04-26T01:15:33;97817.28;;;12.48;79.31
22753;BME280;11543;43.144;24.684;2023-04-26T01:18:00;97823.69;;;12.47;79.13
22753;BME280;11543;43.144;24.684;2023-04-26T01:20:25;97827.91;;;12.35;79.33
22753;BME280;11543;43.144;24.684;2023-04-26T01:22:51;97820.22;;;12.32;79.23
22753;BME280;11543;43.144;24.684;2023-04-26T01:25:17;97810.25;;;12.26;79.28
22753;BME280;11543;43.144;24.684;2023-04-26T01:27:43;97813.84;;;12.33;79.67
22753;BME280;11543;43.144;24.684;2023-04-26T01:30:09;97807.56;;;12.26;79.87
22753;BME280;11543;43.144;24.684;2023-04-26T01:32:35;97807.47;;;12.19;79.79
22753;BME280;11543;43.144;24.684;2023-04-26T01:35:00;97809.34;;;12.19;79.69
22753;BME280;11543;43.144;24.684;2023-04-26T01:37:26;97806.28;;;12.22;79.94
22753;BME280;11543;43.144;24.684;2023-04-26T01:39:52;97798.28;;;12.13;79.98
22753;BME280;11543;43.144;24.684;2023-04-26T01:42:17;97788.41;;;12.14;80.22
22753;BME280;11543;43.144;24.684;2023-04-26T01:44:43;97801.28;;;12.19;80.13
22753;BME280;11543;43.144;24.684;2023-04-26T01:47:08;97805.00;;;12.18;80.22
22753;BME280;11543;43.144;24.684;2023-04-26T01:49:34;97801.47;;;12.02;80.15
22753;BME280;11543;43.144;24.684;2023-04-26T01:52:00;97795.94;;;11.89;80.02
22753;BME280;11543;43.144;24.684;2023-04-26T01:54:25;97791.22;;;11.76;80.19
22753;BME280;11543;43.144;24.684;2023-04-26T01:56:51;97771.69;;;11.68;80.09
22753;BME280;11543;43.144;24.684;2023-04-26T01:59:16;97784.75;;;11.71;79.90
22753;BME280;11543;43.144;24.684;2023-04-26T02:01:42;97771.50;;;11.69;80.26
22753;BME280;11543;43.144;24.684;2023-04-26T02:04:08;97784.28;;;11.82;80.53
22753;BME280;11543;43.144;24.684;2023-04-26T02:06:33;97793.34;;;11.96;80.93
22753;BME280;11543;43.144;24.684;2023-04-26T02:08:59;97775.34;;;11.96;80.99
22753;BME280;11543;43.144;24.684;2023-04-26T02:11:25;97783.75;;;12.08;80.97
22753;BME280;11543;43.144;24.684;2023-04-26T02:13:51;97781.81;;;12.17;80.96
22753;BME280;11543;43.144;24.684;2023-04-26T02:16:17;97792.81;;;12.22;80.80
22753;BME280;11543;43.144;24.684;2023-04-26T02:18:43;97785.00;;;12.27;80.55
22753;BME280;11543;43.144;24.684;2023-04-26T02:21:10;97788.78;;;12.32;80.26
22753;BME280;11543;43.144;24.684;2023-04-26T02:23:36;97777.47;;;12.37;79.95
22753;BME280;11543;43.144;24.684;2023-04-26T02:26:01;97752.09;;;12.25;79.79
22753;BME280;11543;43.144;24.684;2023-04-26T02:28:27;97758.31;;;12.25;79.28
22753;BME280;11543;43.144;24.684;2023-04-26T02:30:53;97753.72;;;12.19;79.46
22753;BME280;11543;43.144;24.684;2023-04-26T02:33:21;97791.59;;;12.24;79.56
22753;BME280;11543;43.144;24.684;2023-04-26T02:35:47;97782.72;;;12.24;79.55
22753;BME280;11543;43.144;24.684;2023-04-26T02:38:12;97781.88;;;12.23;79.55
22753;BME280;11543;43.144;24.684;2023-04-26T02:40:38;97760.31;;;12.17;79.96
22753;BME280;11543;43.144;24.684;2023-04-26T02:43:03;97770.75;;;12.26;79.72
22753;BME280;11543;43.144;24.684;2023-04-26T02:45:29;97786.69;;;12.28;79.57
22753;BME280;11543;43.144;24.684;2023-04-26T02:47:54;97766.41;;;12.10;79.54
22753;BME280;11543;43.144;24.684;2023-04-26T02:50:20;97783.56;;;12.09;79.64
22753;BME280;11543;43.144;24.684;2023-04-26T02:52:46;97781.56;;;11.97;79.88
22753;BME280;11543;43.144;24.684;2023-04-26T02:55:11;97778.16;;;11.88;79.82
22753;BME280;11543;43.144;24.684;2023-04-26T02:57:37;97795.50;;;11.86;79.55
22753;BME280;11543;43.144;24.684;2023-04-26T03:00:02;97807.06;;;11.86;79.62
22753;BME280;11543;43.144;24.684;2023-04-26T03:02:29;97812.47;;;11.86;79.49
22753;BME280;11543;43.144;24.684;2023-04-26T03:04:55;97810.03;;;11.91;79.41
22753;BME280;11543;43.144;24.684;2023-04-26T03:07:21;97811.97;;;11.97;79.45
22753;BME280;11543;43.144;24.684;2023-04-26T03:09:46;97798.53;;;11.97;78.68
22753;BME280;11543;43.144;24.684;2023-04-26T03:12:12;97815.56;;;12.04;78.48
22753;BME280;11543;43.144;24.684;2023-04-26T03:14:38;97813.50;;;12.06;78.01
22753;BME280;11543;43.144;24.684;2023-04-26T03:17:03;97801.47;;;12.02;77.68
22753;BME280;11543;43.144;24.684;2023-04-26T03:19:29;97795.19;;;11.95;77.44
22753;BME280;11543;43.144;24.684;2023-04-26T03:21:55;97803.06;;;11.97;77.18
22753;BME280;11543;43.144;24.684;2023-04-26T03:24:21;97823.88;;;12.09;77.15
22753;BME280;11543;43.144;24.684;2023-04-26T03:26:47;97829.66;;;12.06;77.02
22753;BME280;11543;43.144;24.684;2023-04-26T03:29:12;97814.00;;;11.95;76.89
22753;BME280;11543;43.144;24.684;2023-04-26T03:31:38;97832.97;;;12.08;76.74
22753;BME280;11543;43.144;24.684;2023-04-26T03:34:04;97822.59;;;12.05;76.22
22753;BME280;11543;43.144;24.684;2023-04-26T03:36:29;97832.97;;;12.08;76.15
22753;BME280;11543;43.144;24.684;2023-04-26T03:38:55;97813.50;;;12.06;76.02
22753;BME280;11543;43.144;24.684;2023-04-26T03:41:22;97797.25;;;11.93;76.10
22753;BME280;11543;43.144;24.684;2023-04-26T03:43:48;97827.34;;;12.03;75.95
22753;BME280;11543;43.144;24.684;2023-04-26T03:46:14;97814.50;;;11.84;75.91
22753;BME280;11543;43.144;24.684;2023-04-26T03:48:40;97821.53;;;11.85;76.66
22753;BME280;11543;43.144;24.684;2023-04-26T03:51:06;97812.47;;;11.86;76.57
22753;BME280;11543;43.144;24.684;2023-04-26T03:53:31;97828.31;;;11.81;76.93
22753;BME280;11543;43.144;24.684;2023-04-26T03:55:57;97834.59;;;11.88;76.93
22753;BME280;11543;43.144;24.684;2023-04-26T03:58:24;97831.06;;;11.88;77.05
22753;BME280;11543;43.144;24.684;2023-04-26T04:00:50;97828.94;;;11.83;76.46
22753;BME280;11543;43.144;24.684;2023-04-26T04:03:15;97823.97;;;11.80;76.66
22753;BME280;11543;43.144;24.684;2023-04-26T04:05:41;97818.22;;;11.83;76.25
22753;BME280;11543;43.144;24.684;2023-04-26T04:08:06;97817.84;;;11.86;76.46
22753;BME280;11543;43.144;24.684;2023-04-26T04:10:33;97823.41;;;11.85;76.47
22753;BME280;11543;43.144;24.684;2023-04-26T04:13:01;97852.28;;;11.97;76.52
22753;BME280;11543;43.144;24.684;2023-04-26T04:15:26;97847.66;;;11.91;76.22
22753;BME280;11543;43.144;24.684;2023-04-26T04:17:52;97848.41;;;11.85;76.36
22753;BME280;11543;43.144;24.684;2023-04-26T04:20:17;97861.00;;;11.85;76.78
22753;BME280;11543;43.144;24.684;2023-04-26T04:22:44;97846.53;;;11.71;77.18
22753;BME280;11543;43.144;24.684;2023-04-26T04:25:10;97843.22;;;11.69;77.48
22753;BME280;11543;43.144;24.684;2023-04-26T04:27:37;97860.25;;;11.76;77.75
22753;BME280;11543;43.144;24.684;2023-04-26T04:30:04;97832.09;;;11.72;78.08
22753;BME280;11543;43.144;24.684;2023-04-26T04:32:31;97845.47;;;11.80;78.00
22753;BME280;11543;43.144;24.684;2023-04-26T04:34:58;97832.09;;;11.72;78.12
22753;BME280;11543;43.144;24.684;2023-04-26T04:37:24;97830.53;;;11.77;78.32
22753;BME280;11543;43.144;24.684;2023-04-26T04:39:51;97817.25;;;11.76;78.23
22753;BME280;11543;43.144;24.684;2023-04-26T04:42:17;97825.63;;;11.81;78.57
22753;BME280;11543;43.144;24.684;2023-04-26T04:44:43;97828.31;;;11.81;78.60
22753;BME280;11543;43.144;24.684;2023-04-26T04:47:11;97835.81;;;11.86;79.07
22753;BME280;11543;43.144;24.684;2023-04-26T04:49:37;97839.41;;;11.93;79.04
22753;BME280;11543;43.144;24.684;2023-04-26T04:52:03;97841.16;;;12.00;79.15
22753;BME280;11543;43.144;24.684;2023-04-26T04:54:28;97842.06;;;12.07;79.47
22753;BME280;11543;43.144;24.684;2023-04-26T04:56:54;97844.28;;;12.19;79.43
22753;BME280;11543;43.144;24.684;2023-04-26T04:59:20;97838.16;;;12.25;79.61
22753;BME280;11543;43.144;24.684;2023-04-26T05:01:45;97842.00;;;12.37;79.83
22753;BME280;11543;43.144;24.684;2023-04-26T05:04:11;97823.19;;;12.37;80.28
22753;BME280;11543;43.144;24.684;2023-04-26T05:06:36;97834.78;;;12.59;80.19
22753;BME280;11543;43.144;24.684;2023-04-26T05:09:02;97829.19;;;12.60;80.25
22753;BME280;11543;43.144;24.684;2023-04-26T05:11:30;97825.53;;;12.68;80.04
22753;BME280;11543;43.144;24.684;2023-04-26T05:13:56;97822.91;;;12.74;80.01
22753;BME280;11543;43.144;24.684;2023-04-26T05:16:22;97826.75;;;12.87;79.88
22753;BME280;11543;43.144;24.684;2023-04-26T05:18:49;97820.59;;;12.93;80.32
22753;BME280;11543;43.144;24.684;2023-04-26T05:21:14;97828.28;;;12.96;79.48
22753;BME280;11543;43.144;24.684;2023-04-26T05:23:40;97838.47;;;13.00;79.37
22753;BME280;11543;43.144;24.684;2023-04-26T05:26:06;97830.91;;;12.89;77.51
22753;BME280;11543;43.144;24.684;2023-04-26T05:28:32;97835.31;;;12.97;78.03
22753;BME280;11543;43.144;24.684;2023-04-26T05:30:58;97836.69;;;13.07;78.19
22753;BME280;11543;43.144;24.684;2023-04-26T05:33:28;97847.78;;;13.19;78.01
22753;BME280;11543;43.144;24.684;2023-04-26T05:35:54;97852.25;;;13.12;75.56
22753;BME280;11543;43.144;24.684;2023-04-26T05:38:19;97849.31;;;13.07;73.43
22753;BME280;11543;43.144;24.684;2023-04-26T05:40:46;97829.28;;;13.16;74.48
22753;BME280;11543;43.144;24.684;2023-04-26T05:43:13;97846.59;;;13.28;73.70
22753;BME280;11543;43.144;24.684;2023-04-26T05:45:38;97815.81;;;13.16;74.00
22753;BME280;11543;43.144;24.684;2023-04-26T05:48:04;97826.34;;;13.39;73.94
22753;BME280;11543;43.144;24.684;2023-04-26T05:50:30;97828.44;;;13.44;73.97
22753;BME280;11543;43.144;24.684;2023-04-26T05:52:56;97850.09;;;13.57;72.09
22753;BME280;11543;43.144;24.684;2023-04-26T05:55:22;97848.66;;;13.61;70.90
22753;BME280;11543;43.144;24.684;2023-04-26T05:57:47;97839.72;;;13.54;70.51
22753;BME280;11543;43.144;24.684;2023-04-26T06:00:13;97845.16;;;13.67;69.39
22753;BME280;11543;43.144;24.684;2023-04-26T06:02:40;97845.63;;;13.77;69.96
22753;BME280;11543;43.144;24.684;2023-04-26T06:05:05;97838.69;;;13.55;67.14
22753;BME280;11543;43.144;24.684;2023-04-26T06:07:31;97848.66;;;13.61;67.22
22753;BME280;11543;43.144;24.684;2023-04-26T06:09:59;97854.75;;;13.76;68.77
22753;BME280;11543;43.144;24.684;2023-04-26T06:12:25;97852.22;;;13.68;66.85
22753;BME280;11543;43.144;24.684;2023-04-26T06:14:50;97849.28;;;13.63;65.43
22753;BME280;11543;43.144;24.684;2023-04-26T06:17:16;97860.63;;;13.86;68.08
22753;BME280;11543;43.144;24.684;2023-04-26T06:19:41;97838.78;;;13.75;66.85
22753;BME280;11543;43.144;24.684;2023-04-26T06:22:07;97857.28;;;13.84;65.14
22753;BME280;11543;43.144;24.684;2023-04-26T06:24:32;97837.94;;;13.74;65.27
22753;BME280;11543;43.144;24.684;2023-04-26T06:26:58;97853.34;;;13.87;66.26
22753;BME280;11543;43.144;24.684;2023-04-26T06:29:26;97863.50;;;13.85;64.60
22753;BME280;11543;43.144;24.684;2023-04-26T06:31:51;97849.81;;;13.86;65.91
22753;BME280;11543;43.144;24.684;2023-04-26T06:34:17;97862.09;;;13.89;65.49
22753;BME280;11543;43.144;24.684;2023-04-26T06:36:42;97859.00;;;13.92;62.47
22753;BME280;11543;43.144;24.684;2023-04-26T06:39:08;97855.97;;;14.08;63.34
22753;BME280;11543;43.144;24.684;2023-04-26T06:41:34;97849.13;;;14.06;64.93
22753;BME280;11543;43.144;24.684;2023-04-26T06:44:00;97852.47;;;14.14;65.15
22753;BME280;11543;43.144;24.684;2023-04-26T06:46:26;97860.75;;;14.13;63.44
22753;BME280;11543;43.144;24.684;2023-04-26T06:48:53;97852.50;;;14.27;63.89
22753;BME280;11543;43.144;24.684;2023-04-26T06:51:19;97859.19;;;14.38;64.04
22753;BME280;11543;43.144;24.684;2023-04-26T06:53:45;97859.19;;;14.38;63.85
22753;BME280;11543;43.144;24.684;2023-04-26T06:56:10;97851.38;;;14.56;66.46
22753;BME280;11543;43.144;24.684;2023-04-26T06:58:36;97846.38;;;14.60;66.17
22753;BME280;11543;43.144;24.684;2023-04-26T07:01:23;97863.28;;;14.82;63.95
22753;BME280;11543;43.144;24.684;2023-04-26T07:03:48;97840.63;;;14.83;63.27
22753;BME280;11543;43.144;24.684;2023-04-26T07:06:14;97844.16;;;14.96;60.55
22753;BME280;11543;43.144;24.684;2023-04-26T07:08:39;97857.88;;;15.08;61.29
22753;BME280;11543;43.144;24.684;2023-04-26T07:11:09;97835.44;;;14.94;59.74
22753;BME280;11543;43.144;24.684;2023-04-26T07:13:41;97858.09;;;15.00;59.79
22753;BME280;11543;43.144;24.684;2023-04-26T07:16:06;97863.91;;;15.17;60.79
22753;BME280;11543;43.144;24.684;2023-04-26T07:18:34;97861.84;;;15.25;60.51
22753;BME280;11543;43.144;24.684;2023-04-26T07:21:11;97834.59;;;15.20;57.55
22753;BME280;11543;43.144;24.684;2023-04-26T07:23:37;97839.59;;;15.23;57.12
22753;BME280;11543;43.144;24.684;2023-04-26T07:26:02;97842.06;;;15.32;58.01
22753;BME280;11543;43.144;24.684;2023-04-26T07:28:29;97857.66;;;15.43;58.14
22753;BME280;11543;43.144;24.684;2023-04-26T07:30:55;97867.63;;;15.55;56.32
22753;BME280;11543;43.144;24.684;2023-04-26T07:33:23;97861.38;;;15.55;57.83
22753;BME280;11543;43.144;24.684;2023-04-26T07:35:55;97861.41;;;15.68;55.81
22753;BME280;11543;43.144;24.684;2023-04-26T07:38:25;97847.69;;;15.63;54.25
22753;BME280;11543;43.144;24.684;2023-04-26T07:40:50;97842.69;;;15.73;53.54
22753;BME280;11543;43.144;24.684;2023-04-26T07:43:17;97853.47;;;15.86;53.75
22753;BME280;11543;43.144;24.684;2023-04-26T07:45:42;97861.94;;;15.97;54.02
22753;BME280;11543;43.144;24.684;2023-04-26T07:48:11;97866.69;;;16.08;57.72
22753;BME280;11543;43.144;24.684;2023-04-26T07:50:37;97861.66;;;16.18;54.69
22753;BME280;11543;43.144;24.684;2023-04-26T07:53:03;97857.84;;;16.32;55.00
22753;BME280;11543;43.144;24.684;2023-04-26T07:55:28;97856.56;;;16.41;57.21
22753;BME280;11543;43.144;24.684;2023-04-26T07:57:54;97864.03;;;16.52;54.93
22753;BME280;11543;43.144;24.684;2023-04-26T08:00:19;97840.75;;;16.38;53.39
22753;BME280;11543;43.144;24.684;2023-04-26T08:02:47;97846.53;;;16.48;52.57
22753;BME280;11543;43.144;24.684;2023-04-26T08:05:13;97839.03;;;16.50;51.59
22753;BME280;11543;43.144;24.684;2023-04-26T08:07:40;97849.03;;;16.50;50.94
22753;BME280;11543;43.144;24.684;2023-04-26T08:10:06;97876.81;;;16.77;53.89
22753;BME280;11543;43.144;24.684;2023-04-26T08:12:33;97847.72;;;16.66;51.61
22753;BME280;11543;43.144;24.684;2023-04-26T08:15:00;97869.75;;;16.76;53.12
22753;BME280;11543;43.144;24.684;2023-04-26T08:17:26;97846.47;;;16.68;52.33
22753;BME280;11543;43.144;24.684;2023-04-26T08:19:51;97856.06;;;16.58;53.63
22753;BME280;11543;43.144;24.684;2023-04-26T08:22:17;97861.34;;;16.39;50.29
22753;BME280;11543;43.144;24.684;2023-04-26T08:24:53;97869.03;;;16.42;52.34
22753;BME280;11543;43.144;24.684;2023-04-26T08:27:18;97875.06;;;16.44;51.34
22753;BME280;11543;43.144;24.684;2023-04-26T08:29:45;97851.81;;;16.30;50.87
22753;BME280;11543;43.144;24.684;2023-04-26T08:32:12;97853.91;;;16.28;50.19
22753;BME280;11543;43.144;24.684;2023-04-26T08:34:37;97841.44;;;16.27;49.90
22753;BME280;11543;43.144;24.684;2023-04-26T08:37:03;97846.41;;;16.30;50.74
22753;BME280;11543;43.144;24.684;2023-04-26T08:39:29;97843.69;;;16.30;49.57
22753;BME280;11543;43.144;24.684;2023-04-26T08:42:03;97868.00;;;16.43;49.05
22753;BME280;11543;43.144;24.684;2023-04-26T08:44:32;97878.34;;;16.60;50.87
22753;BME280;11543;43.144;24.684;2023-04-26T08:47:03;97872.34;;;16.51;50.02
22753;BME280;11543;43.144;24.684;2023-04-26T08:49:52;97865.91;;;16.45;50.73
22753;BME280;11543;43.144;24.684;2023-04-26T08:52:28;97861.16;;;16.34;50.48
22753;BME280;11543;43.144;24.684;2023-04-26T08:54:57;97883.63;;;16.48;51.81
22753;BME280;11543;43.144;24.684;2023-04-26T08:57:23;97865.91;;;16.45;51.74
22753;BME280;11543;43.144;24.684;2023-04-26T08:59:49;97875.69;;;16.46;51.61
22753;BME280;11543;43.144;24.684;2023-04-26T09:02:19;97882.28;;;16.64;52.58
22753;BME280;11543;43.144;24.684;2023-04-26T09:04:46;97868.56;;;16.59;52.65
22753;BME280;11543;43.144;24.684;2023-04-26T09:07:19;97850.50;;;16.84;52.93
22753;BME280;11543;43.144;24.684;2023-04-26T09:09:48;97858.28;;;17.05;54.54
22753;BME280;11543;43.144;24.684;2023-04-26T09:12:18;97873.09;;;17.28;52.54
22753;BME280;11543;43.144;24.684;2023-04-26T09:14:45;97862.69;;;17.25;52.75
22753;BME280;11543;43.144;24.684;2023-04-26T09:17:24;97871.75;;;17.43;51.50
22753;BME280;11543;43.144;24.684;2023-04-26T09:19:50;97867.44;;;17.36;49.90
22753;BME280;11543;43.144;24.684;2023-04-26T09:22:35;97855.13;;;17.33;50.60
22753;BME280;11543;43.144;24.684;2023-04-26T09:25:02;97859.69;;;17.39;51.35
22753;BME280;11543;43.144;24.684;2023-04-26T09:27:33;97876.50;;;17.48;50.90
22753;BME280;11543;43.144;24.684;2023-04-26T09:32:43;97857.97;;;17.45;53.05
22753;BME280;11543;43.144;24.684;2023-04-26T09:35:29;97873.22;;;17.64;49.57
22753;BME280;11543;43.144;24.684;2023-04-26T09:38:06;97859.09;;;17.80;50.23
22753;BME280;11543;43.144;24.684;2023-04-26T09:40:36;97847.50;;;17.92;52.82
22753;BME280;11543;43.144;24.684;2023-04-26T09:43:04;97870.19;;;17.97;49.35
22753;BME280;11543;43.144;24.684;2023-04-26T09:45:53;97864.53;;;17.99;49.18
22753;BME280;11543;43.144;24.684;2023-04-26T09:48:20;97877.47;;;17.97;51.00
22753;BME280;11543;43.144;24.684;2023-04-26T09:50:55;97875.06;;;17.89;48.93
22753;BME280;11543;43.144;24.684;2023-04-26T09:53:31;97879.13;;;17.79;48.21
22753;BME280;11543;43.144;24.684;2023-04-26T09:56:15;97862.69;;;17.74;51.22
22753;BME280;11543;43.144;24.684;2023-04-26T09:58:57;97880.72;;;18.05;50.93
22753;BME280;11543;43.144;24.684;2023-04-26T10:01:26;97870.53;;;18.19;49.79
22753;BME280;11543;43.144;24.684;2023-04-26T10:04:13;97871.16;;;18.39;48.42
22753;BME280;11543;43.144;24.684;2023-04-26T10:06:42;97863.88;;;18.52;48.94
22753;BME280;11543;43.144;24.684;2023-04-26T10:09:07;97862.25;;;18.81;49.89
22753;BME280;11543;43.144;24.684;2023-04-26T10:11:34;97872.13;;;19.05;45.57
22753;BME280;11543;43.144;24.684;2023-04-26T10:14:01;97874.31;;;19.15;44.68
22753;BME280;11543;43.144;24.684;2023-04-26T10:16:27;97879.28;;;19.18;46.77
22753;BME280;11543;43.144;24.684;2023-04-26T10:18:53;97883.97;;;19.11;46.62
22753;BME280;11543;43.144;24.684;2023-04-26T10:21:21;97882.59;;;19.20;46.21
22753;BME280;11543;43.144;24.684;2023-04-26T10:23:49;97887.56;;;19.23;46.78
22753;BME280;11543;43.144;24.684;2023-04-26T10:26:50;97882.75;;;19.06;44.99
22753;BME280;11543;43.144;24.684;2023-04-26T10:29:18;97867.31;;;18.77;43.19
22753;BME280;11543;43.144;24.684;2023-04-26T10:34:39;97864.19;;;18.62;45.68
22753;BME280;11543;43.144;24.684;2023-04-26T10:37:13;97859.78;;;18.61;46.35
22753;BME280;11543;43.144;24.684;2023-04-26T10:39:40;97882.69;;;18.83;46.37
22753;BME280;11543;43.144;24.684;2023-04-26T10:42:27;97876.00;;;18.97;46.63
22753;BME280;11543;43.144;24.684;2023-04-26T10:44:58;97871.06;;;19.06;47.25
22753;BME280;11543;43.144;24.684;2023-04-26T10:47:36;97866.41;;;19.36;45.28
22753;BME280;11543;43.144;24.684;2023-04-26T10:52:33;97884.91;;;19.58;44.90
22753;BME280;11543;43.144;24.684;2023-04-26T10:54:59;97864.75;;;19.35;43.57
22753;BME280;11543;43.144;24.684;2023-04-26T10:57:45;97883.66;;;19.30;43.93
22753;BME280;11543;43.144;24.684;2023-04-26T11:00:15;97881.66;;;19.26;45.14
22753;BME280;11543;43.144;24.684;2023-04-26T11:05:39;97886.78;;;19.04;43.88
22753;BME280;11543;43.144;24.684;2023-04-26T11:08:23;97872.75;;;18.77;45.17
22753;BME280;11543;43.144;24.684;2023-04-26T11:11:09;97897.06;;;18.72;44.60
22753;BME280;11543;43.144;24.684;2023-04-26T11:13:40;97874.06;;;18.56;43.91
22753;BME280;11543;43.144;24.684;2023-04-26T11:16:27;97883.16;;;18.80;44.10
22753;BME280;11543;43.144;24.684;2023-04-26T11:19:22;97891.97;;;19.05;45.39
22753;BME280;11543;43.144;24.684;2023-04-26T11:25:32;97888.19;;;19.06;44.87
22753;BME280;11543;43.144;24.684;2023-04-26T11:31:26;97866.44;;;19.06;45.15
22753;BME280;11543;43.144;24.684;2023-04-26T11:34:14;97874.34;;;19.38;43.02
22753;BME280;11543;43.144;24.684;2023-04-26T11:36:55;97862.97;;;19.41;43.46
22753;BME280;11543;43.144;24.684;2023-04-26T11:46:23;97858.72;;;20.15;42.91
22753;BME280;11543;43.144;24.684;2023-04-26T11:55:35;97837.56;;;20.46;42.25
22753;BME280;11543;43.144;24.684;2023-04-26T11:58:13;97852.25;;;20.45;39.06
22753;BME280;11543;43.144;24.684;2023-04-26T12:01:01;97848.50;;;20.22;42.30
22753;BME280;11543;43.144;24.684;2023-04-26T12:07:12;97854.72;;;20.06;43.16
22753;BME280;11543;43.144;24.684;2023-04-26T12:09:45;97876.28;;;19.96;42.40
22753;BME280;11543;43.144;24.684;2023-04-26T12:12:34;97843.72;;;19.89;41.56
22753;BME280;11543;43.144;24.684;2023-04-26T12:18:33;97842.03;;;20.12;41.49
22753;BME280;11543;43.144;24.684;2023-04-26T12:20:59;97856.16;;;20.49;42.60
22753;BME280;11543;43.144;24.684;2023-04-26T12:23:25;97855.47;;;20.70;42.42
22753;BME280;11543;43.144;24.684;2023-04-26T12:25:55;97864.78;;;20.86;41.69
22753;BME280;11543;43.144;24.684;2023-04-26T12:28:24;97850.91;;;20.87;41.04
22753;BME280;11543;43.144;24.684;2023-04-26T12:30:50;97850.56;;;20.84;39.82
22753;BME280;11543;43.144;24.684;2023-04-26T12:33:16;97845.16;;;20.72;40.24
22753;BME280;11543;43.144;24.684;2023-04-26T12:35:44;97839.69;;;20.84;41.23
22753;BME280;11543;43.144;24.684;2023-04-26T12:38:10;97832.59;;;20.99;41.90
22753;BME280;11543;43.144;24.684;2023-04-26T12:40:37;97834.28;;;21.34;39.58
22753;BME280;11543;43.144;24.684;2023-04-26T12:43:03;97824.34;;;21.45;39.44
22753;BME280;11543;43.144;24.684;2023-04-26T12:45:28;97821.22;;;21.36;38.36
22753;BME280;11543;43.144;24.684;2023-04-26T12:47:54;97825.75;;;21.14;39.58
22753;BME280;11543;43.144;24.684;2023-04-26T12:50:23;97824.16;;;21.01;38.65
22753;BME280;11543;43.144;24.684;2023-04-26T12:52:48;97838.47;;;20.80;38.81
22753;BME280;11543;43.144;24.684;2023-04-26T12:55:22;97832.84;;;20.70;39.85
22753;BME280;11543;43.144;24.684;2023-04-26T12:58:01;97832.97;;;20.34;40.67
22753;BME280;11543;43.144;24.684;2023-04-26T13:00:29;97844.13;;;20.21;41.34
22753;BME280;11543;43.144;24.684;2023-04-26T13:02:58;97845.47;;;20.07;41.69
22753;BME280;11543;43.144;24.684;2023-04-26T13:05:23;97824.66;;;20.01;42.07
22753;BME280;11543;43.144;24.684;2023-04-26T13:07:52;97839.31;;;20.12;40.90
22753;BME280;11543;43.144;24.684;2023-04-26T13:10:17;97831.97;;;20.12;40.56
22753;BME280;11543;43.144;24.684;2023-04-26T13:12:43;97844.69;;;20.35;41.48
22753;BME280;11543;43.144;24.684;2023-04-26T13:15:18;97836.84;;;20.39;39.61
22753;BME280;11543;43.144;24.684;2023-04-26T13:17:51;97831.78;;;20.42;39.62
22753;BME280;11543;43.144;24.684;2023-04-26T13:20:24;97850.72;;;20.49;39.47
22753;BME280;11543;43.144;24.684;2023-04-26T13:22:57;97860.63;;;20.55;39.60
22753;BME280;11543;43.144;24.684;2023-04-26T13:25:28;97847.31;;;20.42;39.42
22753;BME280;11543;43.144;24.684;2023-04-26T13:27:56;97863.56;;;20.65;40.88
22753;BME280;11543;43.144;24.684;2023-04-26T13:30:22;97854.31;;;20.66;39.38
22753;BME280;11543;43.144;24.684;2023-04-26T13:32:47;97861.91;;;20.92;39.15
22753;BME280;11543;43.144;24.684;2023-04-26T13:35:16;97851.28;;;21.08;39.39